createdAt,value
2018-01-17T00:01:34.978Z,0.30
2018-01-17T00:04:02.454Z,1.70
2018-01-17T00:06:29.898Z,0.87
2018-01-17T00:08:57.347Z,1.03
2018-01-17T00:11:24.811Z,2.73
2018-01-17T00:13:52.294Z,1.10
2018-01-17T00:16:19.766Z,1.27
2018-01-17T00:18:47.217Z,3.37
2018-01-17T00:21:14.713Z,2.10
2018-01-17T00:23:42.163Z,1.87
2018-01-17T00:26:09.622Z,2.63
2018-01-17T00:28:37.070Z,2.60
2018-01-17T00:31:04.542Z,3.70
2018-01-17T00:33:31.985Z,1.07
2018-01-17T00:35:59.463Z,4.07
2018-01-17T00:38:26.997Z,3.57
2018-01-17T00:40:54.476Z,1.90
2018-01-17T00:43:21.917Z,1.17
2018-01-17T00:45:49.406Z,0.83
2018-01-17T00:48:16.854Z,0.90
2018-01-17T00:50:44.318Z,0.93
2018-01-17T00:53:11.775Z,1.53
2018-01-17T00:55:39.258Z,3.23
2018-01-17T00:58:06.706Z,3.20
2018-01-17T01:00:34.174Z,0.57
2018-01-17T01:03:01.621Z,0.70
2018-01-17T01:05:29.092Z,2.63
2018-01-17T01:07:56.542Z,1.97
2018-01-17T01:10:24.011Z,0.70
2018-01-17T01:12:51.473Z,0.40
2018-01-17T01:15:18.955Z,0.20
2018-01-17T01:17:46.446Z,0.20
2018-01-17T01:20:13.939Z,0.30
2018-01-17T01:22:41.402Z,0.30
2018-01-17T01:25:08.870Z,0.30
2018-01-17T01:27:36.322Z,0.10
2018-01-17T01:30:03.794Z,0.77
2018-01-17T01:32:31.243Z,0.50
2018-01-17T01:34:58.690Z,0.40
2018-01-17T01:37:26.158Z,1.33
2018-01-17T01:39:53.611Z,2.23
2018-01-17T01:42:21.074Z,0.70
2018-01-17T01:44:48.523Z,0.30
2018-01-17T01:47:16.001Z,0.57
2018-01-17T01:49:43.453Z,0.43
2018-01-17T01:52:10.925Z,0.83
2018-01-17T01:54:38.370Z,0.93
2018-01-17T01:57:05.838Z,1.33
2018-01-17T01:59:33.293Z,2.23
2018-01-17T02:02:00.802Z,4.70
2018-01-17T02:04:28.250Z,5.87
2018-01-17T02:06:55.719Z,2.27
2018-01-17T02:09:23.173Z,1.90
2018-01-17T02:11:50.647Z,1.73
2018-01-17T02:14:18.106Z,3.40
2018-01-17T02:16:45.578Z,2.03
2018-01-17T02:19:13.034Z,1.13
2018-01-17T02:21:40.503Z,2.20
2018-01-17T02:24:07.951Z,3.30
2018-01-17T02:26:35.418Z,4.50
2018-01-17T02:29:02.871Z,5.90
2018-01-17T02:31:30.352Z,3.13
2018-01-17T02:33:57.860Z,5.17
2018-01-17T02:36:25.334Z,2.37
2018-01-17T02:38:52.787Z,3.80
2018-01-17T02:41:20.254Z,4.53
2018-01-17T02:43:47.706Z,1.70
2018-01-17T02:46:15.219Z,3.53
2018-01-17T02:48:42.651Z,2.07
2018-01-17T02:51:10.150Z,2.30
2018-01-17T02:53:37.598Z,4.00
2018-01-17T02:56:05.047Z,5.40
2018-01-17T02:58:32.523Z,1.03
2018-01-17T03:00:59.970Z,2.83
2018-01-17T03:03:27.439Z,3.60
2018-01-17T03:05:54.892Z,3.10
2018-01-17T03:08:22.366Z,1.83
2018-01-17T03:10:49.831Z,1.13
2018-01-17T03:13:17.299Z,1.90
2018-01-17T03:15:44.751Z,3.60
2018-01-17T03:18:12.219Z,1.70
2018-01-17T03:20:39.666Z,4.20
2018-01-17T03:23:07.165Z,3.10
2018-01-17T03:25:34.619Z,2.33
2018-01-17T03:28:02.087Z,1.37
2018-01-17T03:30:29.538Z,11.67
2018-01-17T03:32:57.010Z,4.03
2018-01-17T03:35:24.467Z,5.03
2018-01-17T03:37:51.936Z,2.97
2018-01-17T03:40:19.379Z,5.50
2018-01-17T03:42:46.849Z,1.40
2018-01-17T03:45:14.305Z,5.80
2018-01-17T03:47:41.770Z,5.20
2018-01-17T03:50:09.222Z,4.27
2018-01-17T03:52:36.691Z,1.70
2018-01-17T03:55:04.152Z,7.83
2018-01-17T03:57:31.627Z,2.33
2018-01-17T03:59:59.075Z,2.40
2018-01-17T04:02:26.580Z,3.93
2018-01-17T04:04:54.058Z,5.70
2018-01-17T04:07:21.533Z,5.20
2018-01-17T04:09:48.977Z,4.50
2018-01-17T04:12:16.447Z,4.67
2018-01-17T04:14:43.895Z,2.67
2018-01-17T04:17:11.371Z,4.73
2018-01-17T04:19:38.822Z,4.77
2018-01-17T04:22:06.366Z,4.13
2018-01-17T04:24:33.838Z,1.83
2018-01-17T04:27:01.290Z,5.77
2018-01-17T04:29:28.760Z,3.87
2018-01-17T04:31:56.214Z,4.20
2018-01-17T04:34:23.691Z,5.13
2018-01-17T04:36:51.138Z,3.20
2018-01-17T04:39:18.607Z,6.43
2018-01-17T04:41:46.058Z,3.30
2018-01-17T04:44:13.530Z,2.40
2018-01-17T04:46:40.974Z,3.20
2018-01-17T04:49:08.447Z,1.93
2018-01-17T04:51:35.899Z,7.13
2018-01-17T04:54:03.464Z,5.23
2018-01-17T04:56:30.915Z,4.37
2018-01-17T04:58:58.382Z,7.47
2018-01-17T05:01:25.835Z,3.67
2018-01-17T05:03:53.306Z,4.80
2018-01-17T05:06:20.750Z,6.73
2018-01-17T05:08:48.222Z,4.37
2018-01-17T05:11:15.678Z,11.80
2018-01-17T05:13:43.186Z,1.10
2018-01-17T05:16:10.638Z,1.60
2018-01-17T05:18:38.107Z,1.17
2018-01-17T05:21:05.561Z,1.10
2018-01-17T05:23:33.027Z,2.87
2018-01-17T05:26:00.475Z,2.13
2018-01-17T05:28:27.948Z,3.13
2018-01-17T05:30:55.394Z,2.93
2018-01-17T05:33:22.876Z,4.97
2018-01-17T05:35:50.334Z,1.37
2018-01-17T05:38:17.813Z,6.57
2018-01-17T05:40:45.254Z,1.60
2018-01-17T05:43:12.703Z,3.07
2018-01-17T05:45:40.169Z,3.97
2018-01-17T05:48:07.765Z,3.97
2018-01-17T05:50:35.222Z,5.83
2018-01-17T05:53:02.662Z,6.47
2018-01-17T05:55:30.126Z,8.07
2018-01-17T05:57:57.574Z,7.23
2018-01-17T06:00:25.034Z,7.83
2018-01-17T06:02:52.478Z,5.17
2018-01-17T06:05:19.950Z,7.67
2018-01-17T06:07:47.408Z,4.90
2018-01-17T06:10:14.882Z,7.87
2018-01-17T06:12:42.337Z,7.90
2018-01-17T06:15:09.803Z,8.87
2018-01-17T06:17:37.253Z,5.07
2018-01-17T06:20:04.717Z,5.57
2018-01-17T06:22:32.213Z,5.37
2018-01-17T06:24:59.661Z,6.33
2018-01-17T06:27:27.106Z,2.13
2018-01-17T06:29:54.616Z,1.03
2018-01-17T06:32:22.071Z,6.07
2018-01-17T06:34:49.543Z,6.20
2018-01-17T06:37:16.997Z,2.90
2018-01-17T06:39:44.458Z,2.40
2018-01-17T06:42:11.942Z,1.17
2018-01-17T06:44:39.412Z,5.83
2018-01-17T06:47:06.868Z,6.47
2018-01-17T06:49:34.342Z,3.27
2018-01-17T06:52:01.795Z,8.87
2018-01-17T06:54:29.266Z,4.57
2018-01-17T06:56:56.721Z,3.00
2018-01-17T06:59:24.219Z,6.70
2018-01-17T07:01:51.671Z,6.87
2018-01-17T07:04:19.128Z,10.67
2018-01-17T07:06:46.615Z,7.37
2018-01-17T07:09:14.068Z,6.50
2018-01-17T07:11:41.548Z,2.97
2018-01-17T07:14:09.034Z,1.73
2018-01-17T07:16:36.498Z,2.07
2018-01-17T07:19:04.109Z,4.27
2018-01-17T07:21:31.575Z,3.00
2018-01-17T07:23:59.022Z,7.63
2018-01-17T07:26:26.488Z,2.03
2018-01-17T07:28:53.938Z,5.33
2018-01-17T07:31:21.408Z,2.43
2018-01-17T07:33:48.855Z,2.37
2018-01-17T07:36:16.327Z,3.20
2018-01-17T07:38:43.775Z,3.80
2018-01-17T07:41:11.246Z,1.50
2018-01-17T07:43:38.693Z,1.90
2018-01-17T07:46:06.159Z,3.57
2018-01-17T07:48:33.607Z,4.00
2018-01-17T07:51:01.079Z,7.50
2018-01-17T07:53:28.535Z,6.07
2018-01-17T07:55:56.009Z,2.33
2018-01-17T07:58:23.475Z,4.90
2018-01-17T08:00:50.950Z,4.70
2018-01-17T08:03:18.407Z,5.33
2018-01-17T08:05:45.886Z,6.03
2018-01-17T08:08:13.355Z,5.60
2018-01-17T08:10:40.822Z,8.47
2018-01-17T08:13:08.271Z,4.57
2018-01-17T08:15:35.738Z,5.27
2018-01-17T08:18:03.247Z,3.40
2018-01-17T08:20:30.724Z,3.33
2018-01-17T08:22:58.185Z,4.70
2018-01-17T08:25:25.818Z,5.57
2018-01-17T08:27:53.278Z,7.17
2018-01-17T08:30:20.738Z,13.77
2018-01-17T08:32:48.206Z,8.40
2018-01-17T08:35:15.657Z,3.20
2018-01-17T08:37:43.130Z,4.50
2018-01-17T08:40:10.583Z,3.20
2018-01-17T08:42:38.053Z,5.97
2018-01-17T08:45:05.509Z,5.03
2018-01-17T08:47:32.982Z,4.37
2018-01-17T08:50:00.431Z,4.67
2018-01-17T08:52:27.905Z,7.43
2018-01-17T08:54:55.358Z,11.43
2018-01-17T08:57:22.827Z,8.50
2018-01-17T08:59:50.282Z,8.00
2018-01-17T09:02:17.810Z,10.43
2018-01-17T09:04:45.272Z,3.33
2018-01-17T09:07:12.743Z,4.73
2018-01-17T09:09:40.197Z,9.73
2018-01-17T09:12:07.666Z,4.00
2018-01-17T09:14:35.121Z,7.90
2018-01-17T09:17:02.598Z,6.17
2018-01-17T09:19:30.055Z,7.47
2018-01-17T09:21:57.527Z,3.60
2018-01-17T09:24:24.987Z,4.17
2018-01-17T09:26:52.459Z,3.53
2018-01-17T09:29:19.915Z,4.17
2018-01-17T09:31:47.394Z,7.03
2018-01-17T09:34:14.971Z,7.77
2018-01-17T09:36:42.466Z,4.67
2018-01-17T09:39:09.919Z,6.30
2018-01-17T09:41:37.390Z,7.67
2018-01-17T09:44:04.842Z,4.57
2018-01-17T09:46:32.322Z,4.97
2018-01-17T09:48:59.782Z,5.63
2018-01-17T09:51:27.237Z,5.07
2018-01-17T09:53:54.703Z,5.80
2018-01-17T09:56:22.154Z,11.67
2018-01-17T09:58:49.622Z,2.53
2018-01-17T10:01:17.071Z,4.87
2018-01-17T10:03:44.537Z,4.17
2018-01-17T10:06:11.994Z,4.83
2018-01-17T10:08:39.474Z,4.17
2018-01-17T10:11:06.923Z,7.00
2018-01-17T10:13:34.394Z,3.93
2018-01-17T10:16:01.848Z,5.63
2018-01-17T10:18:29.314Z,4.80
2018-01-17T10:20:56.763Z,7.23
2018-01-17T10:23:24.238Z,10.80
2018-01-17T10:25:51.695Z,14.40
2018-01-17T10:28:19.164Z,7.83
2018-01-17T10:30:46.615Z,7.03
2018-01-17T10:33:14.082Z,5.37
2018-01-17T10:35:41.847Z,7.73
2018-01-17T10:38:09.324Z,6.00
2018-01-17T10:40:36.783Z,6.97
2018-01-17T10:43:04.283Z,12.20
2018-01-17T10:45:31.738Z,7.37
2018-01-17T10:48:00.048Z,8.20
2018-01-17T10:50:27.507Z,4.67
2018-01-17T10:52:54.984Z,11.80
2018-01-17T10:55:22.463Z,6.57
2018-01-17T10:57:49.930Z,9.63
2018-01-17T11:00:17.378Z,8.53
2018-01-17T11:02:44.842Z,9.07
2018-01-17T11:05:12.299Z,4.03
2018-01-17T11:07:39.770Z,4.47
2018-01-17T11:10:07.213Z,9.20
2018-01-17T11:12:34.695Z,9.63
2018-01-17T11:15:02.153Z,3.17
2018-01-17T11:17:29.606Z,11.13
2018-01-17T11:19:57.071Z,7.03
2018-01-17T11:22:24.615Z,4.80
2018-01-17T11:24:52.082Z,3.73
2018-01-17T11:27:19.531Z,4.00
2018-01-17T11:29:47.003Z,4.50
2018-01-17T11:32:14.459Z,6.87
2018-01-17T11:34:41.952Z,5.33
2018-01-17T11:37:09.399Z,4.87
2018-01-17T11:39:36.875Z,6.00
2018-01-17T11:42:04.351Z,5.50
2018-01-17T11:44:31.826Z,4.10
2018-01-17T11:46:59.294Z,12.53
2018-01-17T11:49:26.791Z,7.47
2018-01-17T11:51:54.251Z,3.33
2018-01-17T11:54:21.718Z,3.67
2018-01-17T11:56:49.175Z,9.40
2018-01-17T11:59:16.654Z,3.73
2018-01-17T12:01:44.116Z,2.23
2018-01-17T12:04:11.588Z,3.83
2018-01-17T12:06:39.039Z,7.30
2018-01-17T12:09:06.502Z,5.80
2018-01-17T12:11:33.959Z,9.33
2018-01-17T12:14:01.440Z,8.03
2018-01-17T12:16:28.922Z,10.13
2018-01-17T12:18:56.404Z,9.40
2018-01-17T12:21:23.859Z,7.93
2018-01-17T12:23:51.335Z,3.47
2018-01-17T12:26:18.785Z,5.80
2018-01-17T12:28:46.255Z,4.40
2018-01-17T12:31:13.707Z,6.40
2018-01-17T12:33:41.179Z,5.73
2018-01-17T12:36:08.623Z,4.03
2018-01-17T12:38:36.103Z,9.57
2018-01-17T12:41:03.550Z,12.23
2018-01-17T12:43:30.998Z,19.17
2018-01-17T12:45:58.471Z,11.70
2018-01-17T12:48:26.508Z,7.30
2018-01-17T12:50:53.999Z,10.63
2018-01-17T12:53:21.458Z,7.90
2018-01-17T12:55:48.935Z,9.33
2018-01-17T12:58:16.395Z,10.73
2018-01-17T13:00:43.870Z,8.73
2018-01-17T13:03:11.311Z,7.80
2018-01-17T13:05:38.774Z,9.97
2018-01-17T13:08:06.230Z,17.87
2018-01-17T13:10:33.705Z,12.77
2018-01-17T13:13:01.156Z,3.97
2018-01-17T13:15:28.632Z,7.80
2018-01-17T13:17:56.089Z,9.40
2018-01-17T13:20:23.551Z,5.50
2018-01-17T13:22:51.020Z,8.00
2018-01-17T13:25:18.498Z,14.03
2018-01-17T14:43:42.920Z,4.83
2018-01-17T14:46:10.388Z,3.03
2018-01-17T14:48:37.841Z,5.50
2018-01-17T14:51:05.311Z,10.00
2018-01-17T14:53:32.759Z,7.03
2018-01-17T14:56:00.222Z,6.47
2018-01-17T14:58:27.687Z,8.43
2018-01-17T15:00:55.162Z,9.90
2018-01-17T15:03:22.615Z,7.97
2018-01-17T15:05:50.078Z,8.53
2018-01-17T15:08:17.543Z,9.63
2018-01-17T15:10:45.019Z,9.03
2018-01-17T15:13:12.474Z,4.93
2018-01-17T15:15:39.946Z,10.77
2018-01-17T15:18:07.402Z,10.23
2018-01-17T15:20:34.878Z,6.67
2018-01-17T15:23:02.318Z,5.00
2018-01-17T15:25:29.800Z,8.67
2018-01-17T15:27:57.283Z,7.60
2018-01-17T15:30:24.759Z,10.33
2018-01-17T15:32:52.231Z,9.27
2018-01-17T15:35:19.678Z,15.23
2018-01-17T15:37:47.142Z,5.63
2018-01-17T15:40:14.599Z,8.37
2018-01-17T15:42:42.079Z,8.07
2018-01-17T15:45:09.539Z,3.73
2018-01-17T15:47:37.020Z,7.07
2018-01-17T15:50:04.477Z,17.17
2018-01-17T15:52:31.977Z,10.80
2018-01-17T15:54:59.444Z,6.17
2018-01-17T15:57:26.919Z,6.77
2018-01-17T15:59:54.374Z,5.93
2018-01-17T16:02:21.842Z,9.67
2018-01-17T16:04:49.295Z,5.60
2018-01-17T16:07:16.759Z,7.67
2018-01-17T16:09:44.230Z,9.13
2018-01-17T16:12:11.706Z,6.40
2018-01-17T16:14:39.172Z,5.30
2018-01-17T16:17:06.643Z,6.13
2018-01-17T16:19:34.094Z,4.60
2018-01-17T16:22:01.566Z,4.07
2018-01-17T16:24:29.014Z,9.90
2018-01-17T16:29:30.339Z,7.87
2018-01-17T16:31:57.821Z,5.13
2018-01-17T16:34:25.272Z,7.23
2018-01-17T16:36:52.735Z,5.90
2018-01-17T16:39:20.199Z,8.33
2018-01-17T16:41:47.662Z,8.63
2018-01-17T16:44:15.111Z,10.07
2018-01-17T16:46:42.590Z,14.60
2018-01-17T16:49:10.047Z,12.33
2018-01-17T16:51:37.511Z,7.57
2018-01-17T16:54:04.982Z,8.67
2018-01-17T16:56:32.445Z,10.63
2018-01-17T16:58:59.924Z,15.80
2018-01-17T17:01:27.379Z,7.57
2018-01-17T17:03:54.860Z,12.20
2018-01-17T17:06:22.324Z,5.57
2018-01-17T17:08:49.799Z,9.73
2018-01-17T17:11:17.258Z,3.77
2018-01-17T17:13:44.733Z,5.97
2018-01-17T17:16:12.183Z,5.33
2018-01-17T17:18:39.659Z,8.50
2018-01-17T17:21:07.133Z,9.03
2018-01-17T17:23:34.610Z,10.17
2018-01-17T17:26:02.068Z,11.30
2018-01-17T17:28:29.559Z,7.57
2018-01-17T17:30:57.006Z,7.47
2018-01-17T17:33:24.494Z,8.57
2018-01-17T17:35:51.950Z,5.67
2018-01-17T17:38:19.426Z,14.50
2018-01-17T17:40:46.891Z,5.37
2018-01-17T17:43:14.364Z,9.20
2018-01-17T17:45:41.811Z,9.77
2018-01-17T17:48:09.293Z,8.77
2018-01-17T17:50:36.844Z,3.27
2018-01-17T17:53:04.327Z,3.80
2018-01-17T17:55:31.809Z,5.33
2018-01-17T17:57:59.282Z,9.83
2018-01-17T18:00:26.732Z,5.93
2018-01-17T18:02:54.211Z,3.83
2018-01-17T18:05:21.683Z,7.93
2018-01-17T18:07:49.167Z,6.57
2018-01-17T18:10:16.643Z,2.73
2018-01-17T18:12:44.332Z,3.30
2018-01-17T18:15:11.804Z,3.27
2018-01-17T18:17:39.255Z,4.43
2018-01-17T18:20:06.732Z,4.80
2018-01-17T18:22:34.226Z,2.97
2018-01-17T18:25:01.726Z,3.50
2018-01-17T18:27:29.192Z,6.17
2018-01-17T18:29:56.670Z,8.07
2018-01-17T18:32:24.123Z,5.87
2018-01-17T18:34:51.632Z,7.17
2018-01-17T18:37:19.100Z,5.27
2018-01-17T18:39:46.579Z,8.30
2018-01-17T18:42:14.043Z,6.10
2018-01-17T18:44:41.511Z,4.90
2018-01-17T18:47:08.980Z,9.27
2018-01-17T18:49:36.446Z,6.93
2018-01-17T18:52:03.930Z,5.97
2018-01-17T18:54:31.404Z,18.10
2018-01-17T18:56:58.883Z,5.60
2018-01-17T18:59:26.353Z,8.17
2018-01-17T19:01:53.816Z,7.97
2018-01-17T19:04:21.283Z,7.27
2018-01-17T19:06:48.738Z,6.23
2018-01-17T19:09:16.205Z,5.37
2018-01-17T19:11:43.650Z,9.93
2018-01-17T19:14:11.131Z,10.33
2018-01-17T19:16:38.634Z,11.27
2018-01-17T19:19:06.119Z,6.93
2018-01-17T19:21:39.384Z,7.63
2018-01-17T19:24:07.547Z,7.17
2018-01-17T19:26:34.999Z,5.63
2018-01-17T19:29:02.477Z,3.60
2018-01-17T19:31:29.938Z,13.47
2018-01-17T19:33:57.426Z,7.50
2018-01-17T19:36:24.876Z,4.10
2018-01-17T19:38:52.369Z,7.30
2018-01-17T19:41:19.842Z,10.63
2018-01-17T19:43:47.311Z,11.33
2018-01-17T19:46:14.791Z,5.53
2018-01-17T19:48:42.251Z,11.00
2018-01-17T19:51:09.727Z,15.60
2018-01-17T19:53:37.183Z,5.60
2018-01-17T19:56:04.695Z,12.27
2018-01-17T19:58:32.153Z,13.60
2018-01-17T20:00:59.627Z,5.37
2018-01-17T20:03:27.116Z,13.67
2018-01-17T20:05:54.592Z,9.37
2018-01-17T20:08:22.055Z,13.80
2018-01-17T20:10:49.527Z,11.23
2018-01-17T20:13:16.988Z,9.50
2018-01-17T20:15:44.475Z,10.50
2018-01-17T20:18:11.928Z,13.80
2018-01-17T20:20:39.412Z,4.10
2018-01-17T20:23:07.841Z,7.33
2018-01-17T20:25:35.316Z,12.00
2018-01-17T20:28:02.777Z,10.27
2018-01-17T20:30:30.247Z,19.53
2018-01-17T20:32:57.754Z,18.03
2018-01-17T20:35:25.332Z,11.87
2018-01-17T20:37:52.798Z,11.83
2018-01-17T20:40:20.308Z,20.13
2018-01-17T20:42:47.810Z,10.40
2018-01-17T20:45:15.294Z,11.23
2018-01-17T20:47:42.769Z,44.03
2018-01-17T20:50:10.353Z,8.37
2018-01-17T20:52:37.814Z,15.03
2018-01-17T20:55:05.300Z,12.07
2018-01-17T20:57:32.769Z,8.80
2018-01-17T21:00:00.250Z,21.10
2018-01-17T21:02:27.719Z,13.93
2018-01-17T21:04:55.199Z,16.23
2018-01-17T21:07:22.679Z,19.03
2018-01-17T21:09:50.158Z,17.50
2018-01-17T21:12:17.647Z,17.40
2018-01-17T21:14:45.133Z,23.73
2018-01-17T21:17:12.648Z,25.23
2018-01-17T21:19:40.103Z,24.90
2018-01-17T21:22:07.590Z,19.07
2018-01-17T21:24:35.046Z,22.17
2018-01-17T21:27:02.524Z,22.70
2018-01-17T21:29:29.970Z,15.27
2018-01-17T21:31:57.458Z,16.70
2018-01-17T21:34:24.928Z,15.87
2018-01-17T21:36:52.508Z,11.73
2018-01-17T21:39:19.969Z,12.83
2018-01-17T21:41:47.443Z,10.90
2018-01-17T21:44:20.338Z,8.53
2018-01-17T21:46:48.594Z,9.93
2018-01-17T21:49:16.064Z,5.93
2018-01-17T21:51:43.530Z,4.30
2018-01-17T21:54:11.006Z,10.77
2018-01-17T21:56:38.482Z,9.20
2018-01-17T21:59:05.935Z,11.47
2018-01-17T22:01:33.414Z,17.50
2018-01-17T22:04:00.869Z,8.43
2018-01-17T22:06:28.351Z,15.73
2018-01-17T22:08:55.804Z,7.90
2018-01-17T22:11:23.275Z,10.03
2018-01-17T22:13:50.794Z,15.37
2018-01-17T22:16:18.277Z,8.57
2018-01-17T22:18:45.774Z,8.27
2018-01-17T22:21:13.247Z,8.83
2018-01-17T22:23:40.698Z,7.90
2018-01-17T22:26:08.156Z,13.43
2018-01-17T22:28:35.630Z,9.77
2018-01-17T22:31:03.141Z,9.30
2018-01-17T22:33:30.612Z,9.63
2018-01-17T22:35:58.066Z,16.23
2018-01-17T22:38:25.545Z,17.63
2018-01-17T22:40:52.994Z,13.23
2018-01-17T22:43:20.474Z,17.07
2018-01-17T22:45:47.932Z,6.70
2018-01-17T22:48:15.408Z,18.13
2018-01-17T22:50:42.872Z,13.37
2018-01-17T22:53:10.339Z,8.23
2018-01-17T22:55:37.794Z,8.60
2018-01-17T22:58:05.279Z,11.90
2018-01-17T23:00:32.746Z,13.40
2018-01-17T23:03:00.216Z,13.20
2018-01-17T23:05:27.678Z,13.07
2018-01-17T23:07:55.144Z,9.23
2018-01-17T23:10:22.613Z,11.73
2018-01-17T23:12:50.091Z,19.60
2018-01-17T23:15:17.545Z,10.70
2018-01-17T23:17:45.087Z,9.07
2018-01-17T23:20:12.538Z,7.57
2018-01-17T23:22:40.014Z,18.27
2018-01-17T23:25:07.470Z,12.53
2018-01-17T23:27:34.938Z,15.73
2018-01-17T23:30:02.432Z,15.53
2018-01-17T23:32:29.911Z,12.27
2018-01-17T23:34:57.364Z,11.57
2018-01-17T23:37:24.839Z,10.27
2018-01-17T23:39:52.428Z,14.17
2018-01-17T23:42:19.902Z,12.80
2018-01-17T23:44:47.351Z,11.00
2018-01-17T23:47:14.820Z,7.17
2018-01-17T23:49:42.275Z,14.93
2018-01-17T23:52:09.777Z,12.73
2018-01-17T23:54:37.287Z,15.00
2018-01-17T23:57:04.739Z,10.23
2018-01-17T23:59:32.235Z,8.83
